Time;durP1;ratioP1;P1;durP2;ratioP2;P2;SDS_P1;SDS_P2;PMS_P1;PMS_P2;Temp;Humidity;BMP_temperature;BMP_pressure;BME280_temperature;BME280_humidity;BME280_pressure;Samples;Min_cycle;Max_cycle;Signal;HPM_P1;HPM_P2
2022/01/09 00:00:21;;;;;;;5.45;0.70;;;6.10;99.90;;;;;;5098308;27;20039;-94
2022/01/09 00:02:47;;;;;;;2.10;0.57;;;6.10;99.90;;;;;;5097287;27;20048;-93
2022/01/09 00:05:16;;;;;;;4.93;1.35;;;6.10;99.90;;;;;;5105913;27;20065;-94
2022/01/09 00:07:42;;;;;;;0.40;0.40;;;6.10;99.90;;;;;;5105668;27;20116;-94
2022/01/09 00:10:09;;;;;;;3.72;1.02;;;6.10;99.90;;;;;;5102395;27;20043;-94
2022/01/09 00:12:39;;;;;;;4.90;0.75;;;6.10;99.90;;;;;;5105033;27;20043;-94
2022/01/09 00:15:06;;;;;;;2.17;0.95;;;6.00;99.90;;;;;;5099740;27;20043;-93
2022/01/09 00:17:32;;;;;;;3.90;1.48;;;6.10;99.90;;;;;;5107298;27;20066;-94
2022/01/09 00:19:58;;;;;;;6.18;1.35;;;6.00;99.90;;;;;;5099625;27;20138;-94
2022/01/09 00:22:38;;;;;;;9.55;2.17;;;6.00;99.90;;;;;;5102220;27;20100;-94
2022/01/09 00:25:05;;;;;;;4.78;0.90;;;6.00;99.90;;;;;;5103378;27;20148;-94
2022/01/09 00:27:31;;;;;;;1.00;0.63;;;6.00;99.90;;;;;;5101479;27;20099;-94
2022/01/09 00:29:58;;;;;;;2.22;0.90;;;6.00;99.90;;;;;;5102464;27;20040;-94
2022/01/09 00:32:27;;;;;;;1.25;0.85;;;6.00;99.90;;;;;;5101253;27;20051;-92
2022/01/09 00:34:53;;;;;;;0.80;0.57;;;6.00;99.90;;;;;;5099121;27;20166;-94
2022/01/09 00:37:18;;;;;;;1.08;0.85;;;6.00;99.90;;;;;;5101427;27;20524;-93
2022/01/09 00:39:44;;;;;;;2.15;1.20;;;6.00;99.90;;;;;;5102045;27;20136;-94
2022/01/09 00:42:10;;;;;;;3.92;1.17;;;6.00;99.90;;;;;;5100516;27;20037;-91
2022/01/09 00:44:36;;;;;;;3.05;0.85;;;6.00;99.90;;;;;;5103773;27;20044;-93
2022/01/09 00:47:01;;;;;;;10.05;1.67;;;6.00;99.90;;;;;;5090307;27;20037;-92
2022/01/09 00:49:27;;;;;;;3.10;0.63;;;6.00;99.90;;;;;;5124755;27;20047;-92
2022/01/09 00:51:59;;;;;;;6.47;1.90;;;6.00;99.90;;;;;;5131542;27;20037;-92
2022/01/09 00:54:25;;;;;;;5.43;1.42;;;5.90;99.90;;;;;;5097609;27;20040;-91
2022/01/09 00:56:55;;;;;;;2.08;1.05;;;5.90;99.90;;;;;;5128697;27;20422;-92
2022/01/09 00:59:21;;;;;;;1.98;1.20;;;5.90;99.90;;;;;;5099885;27;20067;-92
2022/01/09 01:01:47;;;;;;;4.40;1.13;;;5.90;99.90;;;;;;5095442;27;20603;-92
2022/01/09 01:04:13;;;;;;;2.75;1.70;;;5.90;99.90;;;;;;5095676;27;21008;-92
2022/01/09 01:06:39;;;;;;;1.98;0.63;;;5.90;99.90;;;;;;5101028;27;20047;-91
2022/01/09 01:09:05;;;;;;;11.30;1.60;;;5.90;99.90;;;;;;5104396;27;20040;-92
2022/01/09 01:11:31;;;;;;;0.77;0.77;;;5.90;99.90;;;;;;5095147;27;20048;-92
2022/01/09 01:13:57;;;;;;;0.65;0.52;;;5.90;99.90;;;;;;5101485;27;20040;-92
2022/01/09 01:16:23;;;;;;;4.75;1.45;;;5.90;99.90;;;;;;5098129;27;20043;-92
2022/01/09 01:18:49;;;;;;;3.97;1.98;;;5.90;99.90;;;;;;5095649;27;20507;-91
2022/01/09 01:21:14;;;;;;;4.35;2.15;;;6.00;99.90;;;;;;5097074;27;20071;-92
2022/01/09 01:23:41;;;;;;;6.68;2.03;;;6.40;99.90;;;;;;5097075;27;20047;-92
2022/01/09 01:26:06;;;;;;;1.25;0.82;;;6.10;99.90;;;;;;5098460;27;20044;-92
2022/01/09 01:28:33;;;;;;;10.65;1.13;;;6.10;99.90;;;;;;5095956;27;20051;-92
2022/01/09 01:30:58;;;;;;;2.25;0.80;;;6.10;99.90;;;;;;5094887;27;20066;-93
2022/01/09 01:33:24;;;;;;;9.68;1.67;;;6.20;99.90;;;;;;5093367;27;20131;-92
2022/01/09 01:35:50;;;;;;;8.48;1.40;;;6.20;99.90;;;;;;5093542;27;20109;-93
2022/01/09 01:38:17;;;;;;;14.93;2.30;;;6.20;99.90;;;;;;5093962;27;20048;-93
2022/01/09 01:40:42;;;;;;;5.88;1.48;;;6.20;99.90;;;;;;5088046;27;20032;-93
2022/01/09 01:43:09;;;;;;;4.10;1.10;;;6.30;99.90;;;;;;5087399;27;20044;-93
2022/01/09 01:45:35;;;;;;;5.00;1.95;;;6.20;99.90;;;;;;5088794;27;21271;-94
2022/01/09 01:48:07;;;;;;;6.65;1.33;;;6.20;99.90;;;;;;5090213;27;20050;-93
2022/01/09 01:50:41;;;;;;;1.25;0.80;;;6.10;99.90;;;;;;5089613;27;20158;-94
2022/01/09 01:53:15;;;;;;;9.20;1.15;;;6.00;99.90;;;;;;5090486;27;20190;-93
2022/01/09 01:55:41;;;;;;;5.07;0.93;;;6.00;99.90;;;;;;5090864;27;20079;-94
2022/01/09 01:58:12;;;;;;;7.35;1.42;;;5.90;99.90;;;;;;5099783;27;20075;-93
2022/01/09 02:00:40;;;;;;;9.10;2.15;;;5.90;99.90;;;;;;5120599;27;20799;-93
2022/01/09 02:03:07;;;;;;;3.50;0.90;;;5.90;99.90;;;;;;5087031;27;20090;-93
2022/01/09 02:05:33;;;;;;;2.88;0.68;;;5.80;99.90;;;;;;5092174;27;20127;-93
2022/01/09 02:08:02;;;;;;;6.35;1.45;;;5.80;99.90;;;;;;5092888;27;20144;-93
2022/01/09 02:10:28;;;;;;;2.08;0.82;;;5.80;99.90;;;;;;5092473;27;20086;-93
2022/01/09 02:12:56;;;;;;;1.73;0.65;;;5.80;99.90;;;;;;5093199;27;20059;-93
2022/01/09 02:15:39;;;;;;;0.30;0.30;;;5.80;99.90;;;;;;5088301;27;20036;-94
2022/01/09 02:18:07;;;;;;;6.47;1.67;;;5.80;99.90;;;;;;5091132;27;20048;-93
2022/01/09 02:20:34;;;;;;;5.18;1.35;;;5.80;99.90;;;;;;5094691;27;20583;-93
2022/01/09 02:23:01;;;;;;;1.92;0.95;;;5.80;99.90;;;;;;5094369;27;20693;-93
2022/01/09 02:25:27;;;;;;;5.22;1.27;;;5.80;99.90;;;;;;5084873;27;20054;-93
2022/01/09 02:27:54;;;;;;;0.82;0.80;;;5.70;99.90;;;;;;5122268;27;20483;-93
2022/01/09 02:30:20;;;;;;;5.38;0.82;;;5.70;99.90;;;;;;5084508;27;20880;-93
2022/01/09 02:32:46;;;;;;;3.55;0.98;;;5.70;99.90;;;;;;5090651;27;20052;-93
2022/01/09 02:35:12;;;;;;;7.93;1.60;;;5.70;99.90;;;;;;5125881;27;20048;-92
2022/01/09 02:37:37;;;;;;;5.25;1.08;;;5.70;99.90;;;;;;5090103;27;20064;-93
2022/01/09 02:40:05;;;;;;;5.15;1.52;;;5.70;99.90;;;;;;5090253;27;20051;-93
2022/01/09 02:42:32;;;;;;;1.85;1.35;;;5.70;99.90;;;;;;5085923;27;20119;-93
2022/01/09 02:44:58;;;;;;;5.00;1.90;;;6.00;99.90;;;;;;5093831;27;20349;-94
2022/01/09 02:47:28;;;;;;;6.00;1.42;;;5.70;99.90;;;;;;5085770;27;20052;-93
2022/01/09 02:49:56;;;;;;;3.95;1.33;;;5.70;99.90;;;;;;5091860;27;20082;-93
2022/01/09 02:52:34;;;;;;;3.60;1.27;;;5.70;99.90;;;;;;5092540;27;20091;-93
2022/01/09 02:55:14;;;;;;;3.88;1.10;;;5.70;99.90;;;;;;5086941;27;20132;-93
2022/01/09 02:57:48;;;;;;;1.85;1.27;;;5.70;99.90;;;;;;5091374;27;20068;-92
2022/01/09 03:00:25;;;;;;;0.57;0.38;;;5.70;99.90;;;;;;5090599;27;20049;-92
2022/01/09 03:02:51;;;;;;;2.28;1.20;;;5.70;99.90;;;;;;5085224;27;20111;-93
2022/01/09 03:05:17;;;;;;;0.82;0.52;;;5.70;99.90;;;;;;5098342;27;20048;-93
2022/01/09 03:07:44;;;;;;;6.63;1.30;;;5.70;99.90;;;;;;5093971;27;20036;-93
2022/01/09 03:10:12;;;;;;;1.77;1.35;;;5.70;99.90;;;;;;5097436;27;20814;-92
2022/01/09 03:12:38;;;;;;;4.45;1.02;;;5.60;99.90;;;;;;5096308;27;20032;-93
2022/01/09 03:15:05;;;;;;;4.13;1.63;;;5.60;99.90;;;;;;5099718;27;20044;-92
2022/01/09 03:17:31;;;;;;;12.18;1.23;;;5.60;99.90;;;;;;5109107;27;20116;-94
2022/01/09 03:19:57;;;;;;;7.63;0.95;;;5.60;99.90;;;;;;5107450;27;20587;-92
2022/01/09 03:22:23;;;;;;;1.67;1.05;;;5.60;99.90;;;;;;5096991;27;20115;-92
2022/01/09 03:24:49;;;;;;;6.10;1.40;;;5.60;99.90;;;;;;5095925;27;20048;-93
2022/01/09 03:27:17;;;;;;;10.10;1.77;;;5.70;99.90;;;;;;5098791;27;20040;-93
2022/01/09 03:29:42;;;;;;;2.08;0.65;;;5.70;99.90;;;;;;5097249;27;20155;-93
2022/01/09 03:32:09;;;;;;;5.75;1.95;;;5.80;99.90;;;;;;5106498;27;20201;-92
2022/01/09 03:34:35;;;;;;;5.00;1.30;;;5.80;99.90;;;;;;5095208;27;20032;-93
2022/01/09 03:37:01;;;;;;;7.15;1.73;;;5.90;99.90;;;;;;5097998;27;21141;-92
2022/01/09 03:39:27;;;;;;;3.65;1.15;;;6.00;99.90;;;;;;5126797;27;20093;-92
2022/01/09 03:42:02;;;;;;;2.50;1.05;;;6.00;99.90;;;;;;5082678;27;20044;-93
2022/01/09 03:44:28;;;;;;;8.02;1.83;;;6.10;99.90;;;;;;5094897;27;20052;-93
2022/01/09 03:46:55;;;;;;;1.58;0.80;;;6.10;99.90;;;;;;5100855;27;20041;-93
2022/01/09 03:49:20;;;;;;;6.75;1.38;;;6.20;99.90;;;;;;5106939;27;20028;-92
2022/01/09 03:51:50;;;;;;;5.88;1.63;;;6.20;99.90;;;;;;5106578;27;20041;-92
2022/01/09 03:54:16;;;;;;;1.73;1.10;;;6.20;99.90;;;;;;5123620;27;20040;-92
2022/01/09 03:56:42;;;;;;;2.67;1.25;;;6.30;99.90;;;;;;5149777;27;20058;-92
2022/01/09 03:59:09;;;;;;;3.53;1.00;;;6.20;99.90;;;;;;5111483;27;20057;-93
2022/01/09 04:01:35;;;;;;;5.80;1.45;;;6.20;99.90;;;;;;5114614;27;20036;-92
2022/01/09 04:04:01;;;;;;;5.00;0.93;;;6.10;99.90;;;;;;5111705;27;20029;-93
2022/01/09 04:06:26;;;;;;;7.18;1.27;;;6.00;99.90;;;;;;5113917;27;20138;-94
2022/01/09 04:08:52;;;;;;;3.28;0.90;;;6.00;99.90;;;;;;5110857;27;20039;-93
2022/01/09 04:11:23;;;;;;;3.92;1.02;;;5.90;99.90;;;;;;5107814;27;20125;-94
2022/01/09 04:13:50;;;;;;;3.70;1.58;;;5.90;99.90;;;;;;5103781;27;20127;-94
2022/01/09 04:16:18;;;;;;;6.65;1.30;;;5.80;99.90;;;;;;5099092;27;20539;-93
2022/01/09 04:18:44;;;;;;;9.90;1.55;;;5.80;99.90;;;;;;5096025;27;20112;-93
2022/01/09 04:21:10;;;;;;;8.68;2.08;;;5.80;99.90;;;;;;5095270;27;22225;-93
2022/01/09 04:23:36;;;;;;;8.65;1.10;;;5.70;99.90;;;;;;5096738;27;20044;-93
2022/01/09 04:26:06;;;;;;;9.05;1.55;;;5.70;99.90;;;;;;5097978;27;20095;-93
2022/01/09 04:28:34;;;;;;;5.38;1.08;;;5.70;99.90;;;;;;5101857;27;20190;-93
2022/01/09 04:31:00;;;;;;;6.18;1.10;;;5.70;99.90;;;;;;5094749;27;20033;-93
2022/01/09 04:33:28;;;;;;;5.85;1.45;;;5.70;99.90;;;;;;5097073;27;20170;-93
2022/01/09 04:35:54;;;;;;;2.30;1.27;;;5.70;99.90;;;;;;5095868;27;20123;-93
2022/01/09 04:38:24;;;;;;;1.33;1.13;;;5.70;99.90;;;;;;5093618;27;20824;-93
2022/01/09 04:40:50;;;;;;;2.13;1.13;;;5.70;99.90;;;;;;5095482;27;20066;-93
2022/01/09 04:43:17;;;;;;;3.58;1.08;;;5.70;99.90;;;;;;5104238;27;20206;-93
2022/01/09 04:45:42;;;;;;;12.63;4.53;;;5.70;99.90;;;;;;5131729;27;20134;-92
2022/01/09 04:48:10;;;;;;;9.82;2.65;;;5.70;99.90;;;;;;5098859;27;20567;-93
2022/01/09 04:50:38;;;;;;;11.27;2.80;;;5.70;99.90;;;;;;5094268;27;20032;-93
2022/01/09 04:53:08;;;;;;;5.30;2.30;;;5.70;99.90;;;;;;5100216;27;20036;-93
2022/01/09 04:55:39;;;;;;;3.30;2.58;;;5.70;99.90;;;;;;5106737;27;20052;-93
2022/01/09 04:58:09;;;;;;;9.70;2.33;;;5.70;99.90;;;;;;5129540;27;20127;-93
2022/01/09 05:00:35;;;;;;;3.22;1.25;;;5.70;99.90;;;;;;5097069;27;20283;-93
2022/01/09 05:03:01;;;;;;;17.58;2.90;;;5.70;99.90;;;;;;5100190;27;20075;-93
2022/01/09 05:05:27;;;;;;;9.43;1.90;;;5.60;99.90;;;;;;5103689;27;20940;-93
2022/01/09 05:07:55;;;;;;;15.88;3.15;;;5.60;99.90;;;;;;5097326;27;20048;-93
2022/01/09 05:10:21;;;;;;;6.78;2.38;;;5.60;99.90;;;;;;5129751;27;20047;-93
2022/01/09 05:12:46;;;;;;;6.50;2.13;;;5.70;99.90;;;;;;5100718;27;20044;-93
2022/01/09 05:15:14;;;;;;;15.95;4.60;;;5.60;99.90;;;;;;5099106;27;20040;-93
2022/01/09 05:17:40;;;;;;;6.72;4.13;;;5.60;99.90;;;;;;5098901;27;20041;-93
2022/01/09 05:20:06;;;;;;;12.23;4.93;;;5.60;99.90;;;;;;5094161;27;20072;-93
2022/01/09 05:22:32;;;;;;;9.38;4.63;;;5.60;99.90;;;;;;5101000;27;20085;-92
2022/01/09 05:24:58;;;;;;;3.40;2.30;;;5.60;99.90;;;;;;5099122;27;20044;-92
2022/01/09 05:27:26;;;;;;;8.38;3.20;;;5.60;99.90;;;;;;5094383;27;20619;-93
2022/01/09 05:29:52;;;;;;;4.18;2.25;;;5.50;99.90;;;;;;5097769;27;20037;-93
2022/01/09 05:32:19;;;;;;;7.35;2.90;;;5.50;99.90;;;;;;5098884;27;20044;-94
2022/01/09 05:34:45;;;;;;;4.72;2.90;;;5.60;99.90;;;;;;5101587;27;20044;-94
2022/01/09 05:37:10;;;;;;;2.25;2.05;;;5.50;99.90;;;;;;5095382;27;20040;-93
2022/01/09 05:39:36;;;;;;;7.18;3.28;;;5.60;99.90;;;;;;5097273;27;20032;-94
2022/01/09 05:42:05;;;;;;;13.20;4.75;;;5.50;99.90;;;;;;5095835;27;20120;-94
2022/01/09 05:44:32;;;;;;;16.67;6.10;;;5.60;99.90;;;;;;5131188;27;20040;-93
2022/01/09 05:46:58;;;;;;;10.88;3.00;;;5.60;99.90;;;;;;5096966;27;20612;-93
2022/01/09 05:49:28;;;;;;;6.05;2.47;;;5.60;99.90;;;;;;5105880;27;21421;-94
2022/01/09 05:52:02;;;;;;;4.63;3.13;;;5.60;99.90;;;;;;5106225;27;20043;-93
2022/01/09 05:54:28;;;;;;;2.22;1.60;;;5.50;99.90;;;;;;5097163;27;20048;-93
2022/01/09 05:56:58;;;;;;;5.93;1.90;;;5.50;99.90;;;;;;5095100;27;20551;-94
2022/01/09 05:59:25;;;;;;;2.53;2.05;;;5.50;99.90;;;;;;5096727;27;20067;-94
2022/01/09 06:01:50;;;;;;;5.13;0.98;;;5.60;99.90;;;;;;5102974;27;20048;-94
2022/01/09 06:04:16;;;;;;;1.90;1.30;;;5.60;99.90;;;;;;5109442;27;20043;-93
2022/01/09 06:06:42;;;;;;;3.70;0.60;;;5.60;99.90;;;;;;5108166;27;20048;-93
2022/01/09 06:09:10;;;;;;;0.25;0.25;;;5.60;99.90;;;;;;5113560;27;20044;-93
2022/01/09 06:11:36;;;;;;;0.30;0.30;;;5.60;99.90;;;;;;5110572;27;20044;-94
2022/01/09 06:14:02;;;;;;;0.95;0.77;;;5.60;99.90;;;;;;5114553;27;20043;-93
2022/01/09 06:16:31;;;;;;;4.03;1.70;;;5.50;99.90;;;;;;5108695;27;20036;-94
2022/01/09 06:18:57;;;;;;;26.63;7.32;;;5.60;99.90;;;;;;5104237;27;20036;-93
2022/01/09 06:21:26;;;;;;;2.85;1.85;;;5.70;99.90;;;;;;5114406;27;20406;-93
2022/01/09 06:23:51;;;;;;;4.80;1.95;;;5.70;99.90;;;;;;5109539;27;21459;-93
2022/01/09 06:26:17;;;;;;;2.35;1.45;;;5.80;99.90;;;;;;5106512;27;20048;-93
2022/01/09 06:28:43;;;;;;;1.95;1.42;;;5.80;99.90;;;;;;5109161;27;20032;-93
2022/01/09 06:31:20;;;;;;;5.68;1.27;;;5.90;99.90;;;;;;5112548;27;20051;-94
2022/01/09 06:33:52;;;;;;;4.32;1.10;;;5.90;99.90;;;;;;5109074;27;20104;-94
2022/01/09 06:36:19;;;;;;;4.57;0.82;;;6.00;99.90;;;;;;5110905;27;20129;-93
2022/01/09 06:38:45;;;;;;;1.75;0.52;;;6.00;99.90;;;;;;5107475;27;20040;-93
2022/01/09 06:41:11;;;;;;;6.70;2.08;;;6.00;99.90;;;;;;5109513;27;20044;-93
2022/01/09 06:43:36;;;;;;;1.90;0.65;;;6.00;99.90;;;;;;5113055;27;20066;-92
2022/01/09 06:46:04;;;;;;;4.40;0.98;;;5.90;99.90;;;;;;5108958;27;20492;-93
2022/01/09 06:48:30;;;;;;;0.22;0.22;;;5.90;99.90;;;;;;5105457;27;20044;-93
2022/01/09 06:50:56;;;;;;;0.95;0.60;;;5.90;99.90;;;;;;5106446;27;20443;-93
2022/01/09 06:53:21;;;;;;;2.13;0.93;;;5.90;99.90;;;;;;5114018;27;20067;-94
2022/01/09 06:55:47;;;;;;;2.95;0.75;;;5.90;99.90;;;;;;5103286;27;20064;-93
2022/01/09 06:58:14;;;;;;;2.05;0.80;;;5.90;99.90;;;;;;5105875;27;20036;-93
2022/01/09 07:00:40;;;;;;;0.30;0.30;;;5.90;99.90;;;;;;5110362;27;20684;-93
2022/01/09 07:03:06;;;;;;;1.30;1.13;;;5.80;99.90;;;;;;5108576;27;20090;-95
2022/01/09 07:05:33;;;;;;;1.63;0.77;;;5.90;99.90;;;;;;5103751;27;20041;-94
2022/01/09 07:07:59;;;;;;;7.82;1.90;;;5.90;99.90;;;;;;5110854;27;20044;-93
2022/01/09 07:10:25;;;;;;;3.45;0.70;;;5.80;99.90;;;;;;5107477;27;20040;-93
2022/01/09 07:12:56;;;;;;;0.93;0.73;;;5.80;99.90;;;;;;5107692;27;20043;-93
2022/01/09 07:15:22;;;;;;;3.53;0.90;;;5.80;99.90;;;;;;5109638;27;20048;-93
2022/01/09 07:17:48;;;;;;;2.13;0.73;;;5.80;99.90;;;;;;5115317;27;20040;-94
2022/01/09 07:20:14;;;;;;;2.58;1.08;;;5.80;99.90;;;;;;5104580;27;20113;-94
2022/01/09 07:22:40;;;;;;;4.53;0.77;;;5.80;99.90;;;;;;5110722;27;20150;-94
2022/01/09 07:25:06;;;;;;;2.33;0.65;;;5.80;99.90;;;;;;5108745;27;20071;-93
2022/01/09 07:27:34;;;;;;;1.42;0.80;;;5.80;99.90;;;;;;5107746;27;20069;-94
2022/01/09 07:30:00;;;;;;;0.73;0.63;;;5.90;99.90;;;;;;5109017;27;20089;-93
2022/01/09 07:32:25;;;;;;;0.50;0.50;;;5.90;99.90;;;;;;5112431;27;20047;-93
2022/01/09 07:34:51;;;;;;;2.50;0.77;;;5.90;99.90;;;;;;5111606;27;20050;-95
2022/01/09 07:37:17;;;;;;;2.55;1.02;;;5.80;99.90;;;;;;5107086;27;20046;-94
2022/01/09 07:39:42;;;;;;;4.22;2.22;;;5.80;99.90;;;;;;5140471;27;20047;-94
2022/01/09 07:42:11;;;;;;;0.85;0.52;;;5.80;99.90;;;;;;5106281;27;20093;-94
2022/01/09 07:44:37;;;;;;;3.22;0.93;;;5.80;99.90;;;;;;5114407;27;20043;-95
2022/01/09 07:47:03;;;;;;;2.50;1.15;;;5.80;99.90;;;;;;5102498;27;20040;-91
2022/01/09 07:49:29;;;;;;;0.45;0.30;;;5.70;99.90;;;;;;5108306;27;20037;-86
2022/01/09 07:51:54;;;;;;;5.40;1.10;;;5.70;99.90;;;;;;5103169;27;20494;-89
2022/01/09 07:54:20;;;;;;;3.65;1.05;;;5.70;99.90;;;;;;5097518;27;20053;-90
2022/01/09 07:56:56;;;;;;;3.92;0.98;;;5.80;99.90;;;;;;5103047;27;20044;-96
2022/01/09 07:59:22;;;;;;;2.58;0.70;;;5.80;99.90;;;;;;5115656;27;20043;-91
2022/01/09 08:01:49;;;;;;;1.23;1.05;;;5.80;99.90;;;;;;5100983;27;20040;-90
2022/01/09 08:04:16;;;;;;;4.03;1.05;;;5.80;99.90;;;;;;5106493;27;20075;-90
2022/01/09 08:06:42;;;;;;;1.38;0.65;;;5.80;99.90;;;;;;5104484;27;20565;-90
2022/01/09 08:09:08;;;;;;;2.38;0.77;;;5.80;99.90;;;;;;5104434;27;20055;-91
2022/01/09 08:11:33;;;;;;;3.47;0.80;;;5.80;99.90;;;;;;5101729;27;20964;-91
2022/01/09 08:13:59;;;;;;;3.28;1.02;;;5.90;99.90;;;;;;5102746;27;20126;-93
2022/01/09 08:16:25;;;;;;;4.07;0.73;;;5.90;99.90;;;;;;5099979;27;20044;-91
2022/01/09 08:18:52;;;;;;;8.82;1.17;;;5.90;99.90;;;;;;5104472;27;20545;-90
2022/01/09 08:21:20;;;;;;;3.10;1.05;;;5.90;99.90;;;;;;5106276;27;20048;-92
2022/01/09 08:23:47;;;;;;;1.02;0.63;;;5.80;99.90;;;;;;5108565;27;20752;-91
2022/01/09 08:26:14;;;;;;;2.28;0.50;;;5.80;99.90;;;;;;5143463;27;20050;-91
2022/01/09 08:28:44;;;;;;;1.75;1.08;;;5.80;99.90;;;;;;5110397;27;20036;-91
2022/01/09 08:31:10;;;;;;;1.75;1.00;;;5.70;99.90;;;;;;5107912;27;20119;-91
2022/01/09 08:33:36;;;;;;;0.98;0.50;;;5.70;99.90;;;;;;5105421;27;20036;-91
2022/01/09 08:36:02;;;;;;;0.95;0.65;;;5.80;99.90;;;;;;5112076;27;20045;-91
2022/01/09 08:38:27;;;;;;;1.48;0.75;;;5.80;99.90;;;;;;5110202;27;20515;-91
2022/01/09 08:40:53;;;;;;;2.67;0.65;;;5.90;99.90;;;;;;5108549;27;20541;-91
2022/01/09 08:43:19;;;;;;;1.30;0.73;;;5.90;99.90;;;;;;5104264;27;20052;-91
2022/01/09 08:45:45;;;;;;;4.47;1.05;;;5.90;99.90;;;;;;5134992;27;20037;-91
2022/01/09 08:48:10;;;;;;;3.33;0.95;;;6.00;99.90;;;;;;5108118;27;20492;-90
2022/01/09 08:50:36;;;;;;;4.32;0.82;;;6.00;99.90;;;;;;5109047;27;20040;-91
2022/01/09 08:53:03;;;;;;;4.43;1.05;;;6.00;99.90;;;;;;5104212;27;20135;-91
2022/01/09 08:55:29;;;;;;;2.33;1.05;;;6.00;99.90;;;;;;5103811;27;20135;-92
2022/01/09 08:57:57;;;;;;;1.90;1.02;;;6.00;99.90;;;;;;5100408;27;20152;-91
2022/01/09 09:00:23;;;;;;;3.05;1.00;;;6.00;99.90;;;;;;5109175;27;20045;-92
2022/01/09 09:02:49;;;;;;;0.47;0.43;;;5.90;99.90;;;;;;5109364;27;20164;-92
2022/01/09 09:05:15;;;;;;;1.10;0.45;;;6.00;99.90;;;;;;5114482;27;20651;-93
2022/01/09 09:07:40;;;;;;;4.68;1.08;;;6.00;99.90;;;;;;5101761;27;20042;-90
2022/01/09 09:10:08;;;;;;;1.88;1.25;;;6.00;99.90;;;;;;5097836;27;20044;-86
2022/01/09 09:12:33;;;;;;;6.00;0.63;;;5.90;99.90;;;;;;5101355;27;20043;-88
2022/01/09 09:15:05;;;;;;;0.60;0.60;;;6.00;99.90;;;;;;5099886;27;20092;-90
2022/01/09 09:17:32;;;;;;;2.95;1.00;;;6.10;99.90;;;;;;5101962;27;20032;-87
2022/01/09 09:19:58;;;;;;;7.60;1.35;;;6.10;99.90;;;;;;5104066;27;20051;-91
2022/01/09 09:22:24;;;;;;;0.30;0.30;;;6.20;99.90;;;;;;5111408;27;20075;-89
2022/01/09 09:24:50;;;;;;;7.25;1.58;;;6.20;99.90;;;;;;5108855;27;20051;-90
2022/01/09 09:27:18;;;;;;;4.30;1.00;;;6.20;99.90;;;;;;5109482;27;20048;-90
2022/01/09 09:29:44;;;;;;;5.45;1.35;;;6.20;99.90;;;;;;5105362;27;20043;-87
2022/01/09 09:32:09;;;;;;;3.55;1.27;;;6.30;99.90;;;;;;5105810;27;20044;-89
2022/01/09 09:34:39;;;;;;;1.85;1.02;;;6.30;99.90;;;;;;5104352;27;20048;-89
2022/01/09 09:37:05;;;;;;;4.88;0.73;;;6.40;99.90;;;;;;5112261;27;20056;-89
2022/01/09 09:39:31;;;;;;;4.85;1.40;;;6.60;99.90;;;;;;5108845;27;20040;-89
2022/01/09 09:41:58;;;;;;;7.93;1.20;;;6.60;99.90;;;;;;5107077;27;20052;-88
2022/01/09 09:44:24;;;;;;;3.30;1.00;;;6.60;99.90;;;;;;5110723;27;20042;-89
2022/01/09 09:46:53;;;;;;;7.05;1.40;;;6.50;99.90;;;;;;5110004;27;20503;-88
2022/01/09 09:49:20;;;;;;;1.67;1.40;;;6.50;99.90;;;;;;5100772;27;20037;-88
2022/01/09 09:51:46;;;;;;;1.35;1.08;;;6.50;99.90;;;;;;5103562;27;20118;-88
2022/01/09 09:54:12;;;;;;;2.97;1.27;;;6.50;99.90;;;;;;5103043;27;20091;-89
2022/01/09 09:56:37;;;;;;;3.15;2.45;;;6.50;99.90;;;;;;5103384;27;20066;-88
2022/01/09 09:59:03;;;;;;;2.28;0.85;;;6.60;99.90;;;;;;5100491;27;20040;-90
2022/01/09 10:01:35;;;;;;;2.03;1.20;;;6.70;99.90;;;;;;5103148;27;20515;-89
2022/01/09 10:04:02;;;;;;;2.28;0.90;;;6.80;99.90;;;;;;5110133;27;20070;-89
2022/01/09 10:06:46;;;;;;;1.05;0.70;;;6.80;99.90;;;;;;5108598;27;20042;-89
2022/01/09 10:09:19;;;;;;;2.08;0.90;;;6.90;99.90;;;;;;5109857;27;20577;-88
2022/01/09 10:11:53;;;;;;;6.45;1.25;;;6.90;99.90;;;;;;5112897;27;20043;-89
2022/01/09 10:14:22;;;;;;;3.80;0.80;;;6.80;99.90;;;;;;5116826;27;20048;-89
2022/01/09 10:17:08;;;;;;;3.55;1.38;;;6.80;99.90;;;;;;5111553;27;20463;-90
2022/01/09 10:20:03;;;;;;;2.08;1.35;;;6.70;99.90;;;;;;5111630;27;20040;-88
2022/01/09 10:22:38;;;;;;;6.18;1.02;;;6.70;99.90;;;;;;5100216;27;20040;-88
2022/01/09 10:25:25;;;;;;;5.28;0.80;;;6.70;99.90;;;;;;5102211;27;20074;-88
2022/01/09 10:28:05;;;;;;;1.75;1.08;;;6.80;99.90;;;;;;5099092;27;20047;-88
2022/01/09 10:30:41;;;;;;;4.15;1.20;;;6.80;99.90;;;;;;5100158;27;20072;-89
2022/01/09 10:33:14;;;;;;;2.50;1.10;;;6.90;99.90;;;;;;5103231;27;20040;-88
2022/01/09 10:35:42;;;;;;;4.80;2.22;;;7.00;99.90;;;;;;5105247;27;20429;-89
2022/01/09 10:38:22;;;;;;;3.20;1.73;;;7.20;99.90;;;;;;5101047;27;20033;-89
2022/01/09 10:40:58;;;;;;;2.15;0.88;;;7.30;99.90;;;;;;5133771;27;20059;-89
2022/01/09 10:43:40;;;;;;;2.65;1.17;;;7.30;99.90;;;;;;5129344;27;20056;-89
2022/01/09 10:46:06;;;;;;;3.03;1.85;;;7.30;99.90;;;;;;5099880;27;20044;-89
2022/01/09 10:48:42;;;;;;;4.43;1.27;;;7.40;99.90;;;;;;5101419;27;20040;-88
2022/01/09 10:51:12;;;;;;;5.60;1.25;;;7.40;99.90;;;;;;5100975;27;20123;-88
2022/01/09 10:53:40;;;;;;;4.30;1.27;;;7.40;99.90;;;;;;5103102;27;20051;-89
2022/01/09 10:56:15;;;;;;;1.73;1.08;;;7.50;99.90;;;;;;5098356;27;20060;-90
2022/01/09 10:58:46;;;;;;;3.97;1.63;;;7.40;99.90;;;;;;5104327;27;20603;-88
2022/01/09 11:01:24;;;;;;;3.53;1.58;;;7.30;99.90;;;;;;5105692;27;20162;-89
2022/01/09 11:03:53;;;;;;;2.97;1.65;;;7.30;99.90;;;;;;5139715;27;20126;-88
2022/01/09 11:06:20;;;;;;;0.98;0.85;;;7.30;99.90;;;;;;5104361;27;20044;-89
2022/01/09 11:08:46;;;;;;;2.85;0.90;;;7.30;99.90;;;;;;5133815;27;20044;-92
2022/01/09 11:11:23;;;;;;;1.77;1.67;;;7.30;99.90;;;;;;5099272;27;20040;-90
2022/01/09 11:13:53;;;;;;;4.15;2.00;;;7.30;99.90;;;;;;5095889;27;20044;-93
2022/01/09 11:16:33;;;;;;;11.60;1.90;;;7.30;99.90;;;;;;5099873;27;20188;-90
2022/01/09 11:19:19;;;;;;;4.32;1.13;;;7.30;99.90;;;;;;5102749;27;20036;-90
2022/01/09 11:21:55;;;;;;;5.32;1.20;;;7.40;99.90;;;;;;5098713;27;20032;-89
2022/01/09 11:24:43;;;;;;;3.67;1.38;;;7.40;99.90;;;;;;5101962;27;20864;-89
2022/01/09 11:27:15;;;;;;;1.88;0.75;;;7.50;99.90;;;;;;5099424;27;20044;-89
2022/01/09 11:29:52;;;;;;;;;;;7.70;99.90;;;;;;5099494;27;20068;-89
2022/01/09 11:32:28;;;;;;;3.00;1.15;;;7.70;99.90;;;;;;5099324;27;19953;-89
2022/01/09 11:35:03;;;;;;;5.18;0.85;;;7.70;99.90;;;;;;5100291;27;20087;-89
2022/01/09 11:37:46;;;;;;;9.23;2.05;;;7.70;99.90;;;;;;5114455;27;20044;-90
2022/01/09 11:40:29;;;;;;;5.40;2.65;;;7.70;99.90;;;;;;5103314;27;20040;-94
2022/01/09 11:42:59;;;;;;;6.15;1.40;;;7.70;99.90;;;;;;5110053;27;20041;-89
2022/01/09 11:45:48;;;;;;;5.50;1.80;;;7.60;99.90;;;;;;5104770;27;20048;-92
2022/01/09 11:48:18;;;;;;;3.58;2.70;;;7.60;99.90;;;;;;5086676;27;20628;-89
2022/01/09 11:51:06;;;;;;;2.92;1.00;;;7.60;99.90;;;;;;5101556;27;21391;-94
2022/01/09 11:53:56;;;;;;;4.57;1.27;;;7.60;99.90;;;;;;5094727;27;20102;-89
2022/01/09 11:56:41;;;;;;;4.65;0.98;;;7.60;99.90;;;;;;5093776;27;20059;-90
2022/01/09 11:59:26;;;;;;;6.95;1.85;;;7.70;99.90;;;;;;5095760;27;20068;-88
2022/01/09 12:02:18;;;;;;;3.33;1.27;;;7.80;99.90;;;;;;5097521;27;20044;-87
2022/01/09 12:04:45;;;;;;;2.05;1.20;;;8.00;99.90;;;;;;5095438;27;20551;-88
2022/01/09 12:07:16;;;;;;;2.55;1.27;;;8.20;99.90;;;;;;5104011;27;20052;-87
2022/01/09 12:09:47;;;;;;;5.70;1.65;;;8.40;99.90;;;;;;5098064;27;20412;-88
2022/01/09 12:12:18;;;;;;;2.58;1.63;;;8.80;99.90;;;;;;5097502;27;20485;-88
2022/01/09 12:17:21;;;;;;;4.35;1.58;;;8.40;99.90;;;;;;5095595;27;20053;-88
2022/01/09 12:20:04;;;;;;;2.45;0.90;;;8.40;99.90;;;;;;5098760;27;20040;-88
2022/01/09 12:22:51;;;;;;;3.92;1.23;;;8.40;99.90;;;;;;5101367;27;20044;-88
2022/01/09 12:25:42;;;;;;;3.83;1.20;;;8.40;99.90;;;;;;5096146;27;20048;-88
2022/01/09 12:28:20;;;;;;;5.28;1.38;;;8.50;99.90;;;;;;5092327;27;20498;-87
2022/01/09 12:30:52;;;;;;;2.42;0.90;;;8.50;99.90;;;;;;5094017;27;21473;-89
2022/01/09 12:33:31;;;;;;;;;;;8.40;99.90;;;;;;5099174;27;20475;-88
2022/01/09 12:36:11;;;;;;;4.72;1.58;;;8.40;99.90;;;;;;5094486;27;19926;-88
2022/01/09 12:38:46;;;;;;;3.75;0.88;;;8.40;99.90;;;;;;5093895;27;20159;-88
2022/01/09 12:41:16;;;;;;;3.97;1.20;;;8.50;99.90;;;;;;5087751;27;20044;-88
2022/01/09 12:43:42;;;;;;;2.80;1.20;;;8.70;99.90;;;;;;5092892;27;20533;-89
2022/01/09 12:46:16;;;;;;;4.28;1.52;;;8.90;99.90;;;;;;5100188;27;20131;-89
2022/01/09 12:48:54;;;;;;;3.28;1.20;;;9.00;99.90;;;;;;5094640;27;20048;-88
2022/01/09 12:51:21;;;;;;;3.83;0.90;;;9.00;99.90;;;;;;5098426;27;22111;-88
2022/01/09 12:53:52;;;;;;;3.33;1.10;;;9.10;99.90;;;;;;5096212;27;20041;-88
2022/01/09 12:56:20;;;;;;;1.10;0.85;;;9.10;99.90;;;;;;5100485;27;20083;-87
2022/01/09 12:58:51;;;;;;;2.80;1.38;;;9.10;99.90;;;;;;5097647;27;20047;-88
2022/01/09 13:01:21;;;;;;;1.45;0.77;;;9.00;99.90;;;;;;5090233;27;20055;-88
2022/01/09 13:03:50;;;;;;;1.90;1.00;;;9.00;99.90;;;;;;5106157;27;20060;-89
2022/01/09 13:06:21;;;;;;;3.30;1.05;;;9.00;99.90;;;;;;5095526;27;20044;-87
2022/01/09 13:08:49;;;;;;;1.90;1.00;;;9.00;99.90;;;;;;5098589;27;20044;-89